Aviation Digital Data Service (ADDS)

Output produced by METARs form (2347 UTC 07 February 2016)
found at http://www.aviationweather.gov/adds/metars/
 
KSAV 072253Z 31008KT 10SM FEW250 11/M03 A2993 RMK AO2 SLP137 T01111028